sensor_id;sensor_type;location;lat;lon;timestamp;temperature;humidity
18189;DHT22;9219;50.396;8.546;2023-06-19T07:35:27;22.40;99.90
18189;DHT22;9219;50.396;8.546;2023-06-19T07:37:54;22.40;99.90
18189;DHT22;9219;50.396;8.546;2023-06-19T07:40:22;22.40;99.90
18189;DHT22;9219;50.396;8.546;2023-06-19T07:42:51;22.80;99.90
18189;DHT22;9219;50.396;8.546;2023-06-19T07:45:20;22.90;99.90
18189;DHT22;9219;50.396;8.546;2023-06-19T07:47:54;22.80;99.90
18189;DHT22;9219;50.396;8.546;2023-06-19T07:50:23;22.70;99.90
18189;DHT22;9219;50.396;8.546;2023-06-19T07:52:56;22.60;99.90
18189;DHT22;9219;50.396;8.546;2023-06-19T07:58:14;22.70;99.90
18189;DHT22;9219;50.396;8.546;2023-06-19T08:00:43;22.80;99.90
18189;DHT22;9219;50.396;8.546;2023-06-19T08:03:12;23.00;99.90
18189;DHT22;9219;50.396;8.546;2023-06-19T08:05:42;23.20;99.90
18189;DHT22;9219;50.396;8.546;2023-06-19T08:08:12;23.00;99.90
18189;DHT22;9219;50.396;8.546;2023-06-19T08:10:40;22.90;99.90
18189;DHT22;9219;50.396;8.546;2023-06-19T08:13:09;23.00;99.90
18189;DHT22;9219;50.396;8.546;2023-06-19T08:20:02;22.80;99.90
18189;DHT22;9219;50.396;8.546;2023-06-19T08:22:35;23.10;99.90
18189;DHT22;9219;50.396;8.546;2023-06-19T08:25:04;22.80;99.90
18189;DHT22;9219;50.396;8.546;2023-06-19T08:27:33;22.90;99.90
18189;DHT22;9219;50.396;8.546;2023-06-19T08:30:02;22.80;99.90
18189;DHT22;9219;50.396;8.546;2023-06-19T08:32:31;22.80;99.90
18189;DHT22;9219;50.396;8.546;2023-06-19T08:35:04;23.10;99.90
18189;DHT22;9219;50.396;8.546;2023-06-19T08:48:30;24.30;99.90
18189;DHT22;9219;50.396;8.546;2023-06-19T08:50:59;24.70;99.90
18189;DHT22;9219;50.396;8.546;2023-06-19T08:53:28;25.00;99.90
18189;DHT22;9219;50.396;8.546;2023-06-19T08:55:56;25.00;99.90
18189;DHT22;9219;50.396;8.546;2023-06-19T08:58:26;25.10;99.90
18189;DHT22;9219;50.396;8.546;2023-06-19T09:00:54;25.30;99.90
18189;DHT22;9219;50.396;8.546;2023-06-19T09:03:25;25.50;99.90
18189;DHT22;9219;50.396;8.546;2023-06-19T09:05:54;25.60;99.90
18189;DHT22;9219;50.396;8.546;2023-06-19T09:08:24;25.50;99.90
18189;DHT22;9219;50.396;8.546;2023-06-19T09:15:15;25.90;99.90
18189;DHT22;9219;50.396;8.546;2023-06-19T09:17:44;25.70;99.90
18189;DHT22;9219;50.396;8.546;2023-06-19T09:20:13;25.50;99.90
18189;DHT22;9219;50.396;8.546;2023-06-19T09:22:44;25.00;99.90
18189;DHT22;9219;50.396;8.546;2023-06-19T09:25:13;24.50;99.90
18189;DHT22;9219;50.396;8.546;2023-06-19T09:27:44;24.90;99.90
18189;DHT22;9219;50.396;8.546;2023-06-19T09:30:18;25.30;99.90
18189;DHT22;9219;50.396;8.546;2023-06-19T09:33:31;25.80;99.90
18189;DHT22;9219;50.396;8.546;2023-06-19T09:36:03;26.00;99.90
18189;DHT22;9219;50.396;8.546;2023-06-19T09:38:35;26.30;99.90
18189;DHT22;9219;50.396;8.546;2023-06-19T09:41:06;26.80;99.90
18189;DHT22;9219;50.396;8.546;2023-06-19T09:43:37;26.70;99.90
18189;DHT22;9219;50.396;8.546;2023-06-19T09:46:10;26.40;99.90
18189;DHT22;9219;50.396;8.546;2023-06-19T09:48:46;26.40;99.90
18189;DHT22;9219;50.396;8.546;2023-06-19T09:51:19;26.40;99.90
18189;DHT22;9219;50.396;8.546;2023-06-19T09:53:49;26.70;99.90
18189;DHT22;9219;50.396;8.546;2023-06-19T09:56:45;27.20;99.90
18189;DHT22;9219;50.396;8.546;2023-06-19T09:59:20;27.60;99.90
18189;DHT22;9219;50.396;8.546;2023-06-19T10:01:50;28.10;99.90
18189;DHT22;9219;50.396;8.546;2023-06-19T10:04:21;28.60;99.90
18189;DHT22;9219;50.396;8.546;2023-06-19T10:06:57;28.60;99.90
18189;DHT22;9219;50.396;8.546;2023-06-19T10:09:33;28.70;99.90
18189;DHT22;9219;50.396;8.546;2023-06-19T10:17:44;29.20;99.90
18189;DHT22;9219;50.396;8.546;2023-06-19T10:20:27;29.50;99.90
18189;DHT22;9219;50.396;8.546;2023-06-19T10:23:03;29.10;99.90
18189;DHT22;9219;50.396;8.546;2023-06-19T10:25:39;29.20;99.90
18189;DHT22;9219;50.396;8.546;2023-06-19T10:28:20;29.30;99.90
18189;DHT22;9219;50.396;8.546;2023-06-19T10:31:08;29.30;99.90
18189;DHT22;9219;50.396;8.546;2023-06-19T10:38:39;28.70;99.90
18189;DHT22;9219;50.396;8.546;2023-06-19T10:41:15;29.20;99.90
18189;DHT22;9219;50.396;8.546;2023-06-19T10:43:54;28.90;99.90
18189;DHT22;9219;50.396;8.546;2023-06-19T10:46:30;29.30;99.90
18189;DHT22;9219;50.396;8.546;2023-06-19T10:49:07;29.50;99.90
18189;DHT22;9219;50.396;8.546;2023-06-19T10:51:43;29.30;99.90
18189;DHT22;9219;50.396;8.546;2023-06-19T10:59:29;29.50;99.90
18189;DHT22;9219;50.396;8.546;2023-06-19T11:02:07;30.00;99.90
18189;DHT22;9219;50.396;8.546;2023-06-19T11:04:43;30.30;99.90
18189;DHT22;9219;50.396;8.546;2023-06-19T11:07:19;30.50;99.90
18189;DHT22;9219;50.396;8.546;2023-06-19T11:09:52;30.80;99.90
18189;DHT22;9219;50.396;8.546;2023-06-19T11:12:25;30.70;99.90
18189;DHT22;9219;50.396;8.546;2023-06-19T11:20:15;30.70;99.90
18189;DHT22;9219;50.396;8.546;2023-06-19T11:23:31;30.00;99.90
18189;DHT22;9219;50.396;8.546;2023-06-19T11:26:30;29.80;99.90
18189;DHT22;9219;50.396;8.546;2023-06-19T11:29:30;29.50;99.90
18189;DHT22;9219;50.396;8.546;2023-06-19T11:32:17;29.90;99.90
18189;DHT22;9219;50.396;8.546;2023-06-19T11:38:31;30.10;99.90
18189;DHT22;9219;50.396;8.546;2023-06-19T11:41:03;30.30;99.90
18189;DHT22;9219;50.396;8.546;2023-06-19T11:43:39;29.30;99.90
18189;DHT22;9219;50.396;8.546;2023-06-19T11:46:10;28.60;99.90
18189;DHT22;9219;50.396;8.546;2023-06-19T11:48:44;28.40;99.90
18189;DHT22;9219;50.396;8.546;2023-06-19T11:51:35;28.20;99.90
18189;DHT22;9219;50.396;8.546;2023-06-19T11:54:12;28.20;99.90
18189;DHT22;9219;50.396;8.546;2023-06-19T11:56:47;27.80;99.90
18189;DHT22;9219;50.396;8.546;2023-06-19T11:59:17;27.80;99.90
18189;DHT22;9219;50.396;8.546;2023-06-19T12:06:57;28.30;99.90
18189;DHT22;9219;50.396;8.546;2023-06-19T12:09:28;29.10;99.90
18189;DHT22;9219;50.396;8.546;2023-06-19T12:12:01;29.50;99.90
18189;DHT22;9219;50.396;8.546;2023-06-19T12:14:30;29.70;99.90
18189;DHT22;9219;50.396;8.546;2023-06-19T12:17:00;30.10;99.90
18189;DHT22;9219;50.396;8.546;2023-06-19T12:19:29;30.20;99.90
18189;DHT22;9219;50.396;8.546;2023-06-19T12:24:56;30.30;99.90
18189;DHT22;9219;50.396;8.546;2023-06-19T12:27:29;30.40;99.90
18189;DHT22;9219;50.396;8.546;2023-06-19T12:30:04;30.70;99.90
18189;DHT22;9219;50.396;8.546;2023-06-19T12:32:36;30.30;99.90
18189;DHT22;9219;50.396;8.546;2023-06-19T12:35:06;30.40;99.90
18189;DHT22;9219;50.396;8.546;2023-06-19T12:37:35;30.60;99.90
18189;DHT22;9219;50.396;8.546;2023-06-19T12:42:46;30.70;99.90
18189;DHT22;9219;50.396;8.546;2023-06-19T12:45:17;31.00;99.90
18189;DHT22;9219;50.396;8.546;2023-06-19T12:47:46;30.80;99.90
18189;DHT22;9219;50.396;8.546;2023-06-19T12:50:15;30.60;99.90
18189;DHT22;9219;50.396;8.546;2023-06-19T12:52:44;30.40;99.90
18189;DHT22;9219;50.396;8.546;2023-06-19T12:55:12;30.70;99.90
18189;DHT22;9219;50.396;8.546;2023-06-19T12:57:41;30.90;99.90
18189;DHT22;9219;50.396;8.546;2023-06-19T13:04:29;31.60;99.90
18189;DHT22;9219;50.396;8.546;2023-06-19T13:07:00;32.10;99.90
18189;DHT22;9219;50.396;8.546;2023-06-19T13:09:29;32.10;99.90
18189;DHT22;9219;50.396;8.546;2023-06-19T13:11:58;32.10;99.90
18189;DHT22;9219;50.396;8.546;2023-06-19T13:14:27;32.00;99.90
18189;DHT22;9219;50.396;8.546;2023-06-19T13:16:56;32.20;99.90
18189;DHT22;9219;50.396;8.546;2023-06-19T13:19:25;32.10;99.90
18189;DHT22;9219;50.396;8.546;2023-06-19T13:26:25;31.80;99.90
18189;DHT22;9219;50.396;8.546;2023-06-19T13:28:54;31.20;99.90
18189;DHT22;9219;50.396;8.546;2023-06-19T13:31:26;30.40;99.90
18189;DHT22;9219;50.396;8.546;2023-06-19T13:33:55;30.20;99.90
18189;DHT22;9219;50.396;8.546;2023-06-19T13:36:24;30.30;99.90
18189;DHT22;9219;50.396;8.546;2023-06-19T13:38:56;30.00;99.90
18189;DHT22;9219;50.396;8.546;2023-06-19T13:44:39;30.10;99.90
18189;DHT22;9219;50.396;8.546;2023-06-19T13:47:08;30.30;99.90
18189;DHT22;9219;50.396;8.546;2023-06-19T13:49:38;30.20;99.90
18189;DHT22;9219;50.396;8.546;2023-06-19T13:52:07;30.10;99.90
18189;DHT22;9219;50.396;8.546;2023-06-19T13:54:36;30.20;99.90
18189;DHT22;9219;50.396;8.546;2023-06-19T13:57:06;30.40;99.90
18189;DHT22;9219;50.396;8.546;2023-06-19T13:59:34;30.60;99.90
18189;DHT22;9219;50.396;8.546;2023-06-19T14:04:43;30.80;99.90
18189;DHT22;9219;50.396;8.546;2023-06-19T14:07:12;31.10;99.90
18189;DHT22;9219;50.396;8.546;2023-06-19T14:09:43;31.20;99.90
18189;DHT22;9219;50.396;8.546;2023-06-19T14:12:12;31.30;99.90
18189;DHT22;9219;50.396;8.546;2023-06-19T14:14:42;31.30;99.90
18189;DHT22;9219;50.396;8.546;2023-06-19T14:17:11;31.10;99.90
18189;DHT22;9219;50.396;8.546;2023-06-19T14:19:39;31.40;99.90
18189;DHT22;9219;50.396;8.546;2023-06-19T14:24:50;31.50;99.90
18189;DHT22;9219;50.396;8.546;2023-06-19T14:27:26;31.70;99.90
18189;DHT22;9219;50.396;8.546;2023-06-19T14:29:55;31.60;99.90
18189;DHT22;9219;50.396;8.546;2023-06-19T14:32:24;31.70;99.90
18189;DHT22;9219;50.396;8.546;2023-06-19T14:34:53;31.60;99.90
18189;DHT22;9219;50.396;8.546;2023-06-19T14:37:22;31.50;99.90
18189;DHT22;9219;50.396;8.546;2023-06-19T14:42:37;31.10;99.90
18189;DHT22;9219;50.396;8.546;2023-06-19T14:45:08;30.70;99.90
18189;DHT22;9219;50.396;8.546;2023-06-19T14:47:37;30.60;99.90
18189;DHT22;9219;50.396;8.546;2023-06-19T14:50:07;30.10;99.90
18189;DHT22;9219;50.396;8.546;2023-06-19T14:52:37;29.80;99.90
18189;DHT22;9219;50.396;8.546;2023-06-19T14:55:06;29.70;99.90
18189;DHT22;9219;50.396;8.546;2023-06-19T15:00:20;29.80;99.90
18189;DHT22;9219;50.396;8.546;2023-06-19T15:02:49;30.10;99.90
18189;DHT22;9219;50.396;8.546;2023-06-19T15:05:18;30.40;99.90
18189;DHT22;9219;50.396;8.546;2023-06-19T15:07:47;30.50;99.90
18189;DHT22;9219;50.396;8.546;2023-06-19T15:10:15;30.60;99.90
18189;DHT22;9219;50.396;8.546;2023-06-19T15:12:44;30.70;99.90
18189;DHT22;9219;50.396;8.546;2023-06-19T15:15:13;31.00;99.90
18189;DHT22;9219;50.396;8.546;2023-06-19T15:20:21;31.00;99.90
18189;DHT22;9219;50.396;8.546;2023-06-19T15:22:51;31.40;99.90
18189;DHT22;9219;50.396;8.546;2023-06-19T15:25:19;31.50;99.90
18189;DHT22;9219;50.396;8.546;2023-06-19T15:27:48;31.60;99.90
18189;DHT22;9219;50.396;8.546;2023-06-19T15:30:18;31.60;99.90
18189;DHT22;9219;50.396;8.546;2023-06-19T15:32:46;31.50;99.90
18189;DHT22;9219;50.396;8.546;2023-06-19T15:35:16;31.40;99.90
18189;DHT22;9219;50.396;8.546;2023-06-19T15:40:25;31.40;99.90
18189;DHT22;9219;50.396;8.546;2023-06-19T15:42:55;31.40;99.90
18189;DHT22;9219;50.396;8.546;2023-06-19T15:45:23;31.50;99.90
18189;DHT22;9219;50.396;8.546;2023-06-19T15:47:52;31.50;99.90
18189;DHT22;9219;50.396;8.546;2023-06-19T15:50:21;31.50;99.90
18189;DHT22;9219;50.396;8.546;2023-06-19T15:52:49;31.40;99.90
18189;DHT22;9219;50.396;8.546;2023-06-19T15:55:18;31.50;99.90
18189;DHT22;9219;50.396;8.546;2023-06-19T16:00:27;31.50;99.90
18189;DHT22;9219;50.396;8.546;2023-06-19T16:02:57;31.40;99.90
18189;DHT22;9219;50.396;8.546;2023-06-19T16:05:26;31.30;99.90
18189;DHT22;9219;50.396;8.546;2023-06-19T16:07:54;31.20;99.90
18189;DHT22;9219;50.396;8.546;2023-06-19T16:10:23;31.30;99.90
18189;DHT22;9219;50.396;8.546;2023-06-19T16:12:52;31.10;99.90
18189;DHT22;9219;50.396;8.546;2023-06-19T16:15:21;31.10;99.90
18189;DHT22;9219;50.396;8.546;2023-06-19T16:18:15;30.90;99.90
18189;DHT22;9219;50.396;8.546;2023-06-19T16:20:45;30.80;99.90
18189;DHT22;9219;50.396;8.546;2023-06-19T16:23:13;30.70;99.90
18189;DHT22;9219;50.396;8.546;2023-06-19T16:25:42;30.60;99.90
18189;DHT22;9219;50.396;8.546;2023-06-19T16:28:11;30.50;99.90
18189;DHT22;9219;50.396;8.546;2023-06-19T16:30:40;30.50;99.90
18189;DHT22;9219;50.396;8.546;2023-06-19T16:33:08;30.50;99.90
18189;DHT22;9219;50.396;8.546;2023-06-19T16:40:09;30.50;99.90
18189;DHT22;9219;50.396;8.546;2023-06-19T16:42:38;30.50;99.90
18189;DHT22;9219;50.396;8.546;2023-06-19T16:45:08;30.50;99.90
18189;DHT22;9219;50.396;8.546;2023-06-19T16:47:36;30.40;99.90
18189;DHT22;9219;50.396;8.546;2023-06-19T16:50:05;30.60;99.90
18189;DHT22;9219;50.396;8.546;2023-06-19T16:52:34;30.60;99.90
18189;DHT22;9219;50.396;8.546;2023-06-19T16:55:03;30.50;99.90
18189;DHT22;9219;50.396;8.546;2023-06-19T16:57:33;30.40;99.90
18189;DHT22;9219;50.396;8.546;2023-06-19T17:02:41;30.40;99.90
18189;DHT22;9219;50.396;8.546;2023-06-19T17:05:11;30.30;99.90
18189;DHT22;9219;50.396;8.546;2023-06-19T17:07:39;30.10;99.90
18189;DHT22;9219;50.396;8.546;2023-06-19T17:10:09;30.40;99.90
18189;DHT22;9219;50.396;8.546;2023-06-19T17:12:39;30.50;99.90
18189;DHT22;9219;50.396;8.546;2023-06-19T17:15:09;30.70;99.90
18189;DHT22;9219;50.396;8.546;2023-06-19T17:17:40;30.60;99.90
18189;DHT22;9219;50.396;8.546;2023-06-19T17:24:42;30.40;99.90
18189;DHT22;9219;50.396;8.546;2023-06-19T17:27:11;30.40;99.90
18189;DHT22;9219;50.396;8.546;2023-06-19T17:29:40;30.40;99.90
18189;DHT22;9219;50.396;8.546;2023-06-19T17:32:09;30.30;99.90
18189;DHT22;9219;50.396;8.546;2023-06-19T17:34:37;30.20;99.90
18189;DHT22;9219;50.396;8.546;2023-06-19T17:37:06;30.10;99.90
18189;DHT22;9219;50.396;8.546;2023-06-19T17:39:35;30.20;99.90
18189;DHT22;9219;50.396;8.546;2023-06-19T17:47:28;30.20;99.90
18189;DHT22;9219;50.396;8.546;2023-06-19T17:49:57;29.80;99.90
18189;DHT22;9219;50.396;8.546;2023-06-19T17:52:28;29.60;99.90
18189;DHT22;9219;50.396;8.546;2023-06-19T17:54:58;29.70;99.90
18189;DHT22;9219;50.396;8.546;2023-06-19T17:57:31;29.60;99.90
18189;DHT22;9219;50.396;8.546;2023-06-19T18:00:02;29.60;99.90
18189;DHT22;9219;50.396;8.546;2023-06-19T18:02:38;29.60;99.90
18189;DHT22;9219;50.396;8.546;2023-06-19T18:15:17;29.80;99.90
18189;DHT22;9219;50.396;8.546;2023-06-19T18:17:50;29.60;99.90
18189;DHT22;9219;50.396;8.546;2023-06-19T18:20:19;29.50;99.90
18189;DHT22;9219;50.396;8.546;2023-06-19T18:22:51;29.50;99.90
18189;DHT22;9219;50.396;8.546;2023-06-19T18:25:22;29.50;99.90
18189;DHT22;9219;50.396;8.546;2023-06-19T18:27:52;29.40;99.90
18189;DHT22;9219;50.396;8.546;2023-06-19T18:30:27;29.20;99.90
18189;DHT22;9219;50.396;8.546;2023-06-19T18:32:57;29.10;99.90
18189;DHT22;9219;50.396;8.546;2023-06-19T18:35:28;29.10;99.90
18189;DHT22;9219;50.396;8.546;2023-06-19T18:38:05;29.10;99.90
18189;DHT22;9219;50.396;8.546;2023-06-19T18:44:53;29.10;99.90
18189;DHT22;9219;50.396;8.546;2023-06-19T18:47:22;29.20;99.90
18189;DHT22;9219;50.396;8.546;2023-06-19T18:49:51;29.20;99.90
18189;DHT22;9219;50.396;8.546;2023-06-19T18:52:19;29.20;99.90
18189;DHT22;9219;50.396;8.546;2023-06-19T18:54:48;29.10;99.90
18189;DHT22;9219;50.396;8.546;2023-06-19T18:57:22;29.10;99.90
18189;DHT22;9219;50.396;8.546;2023-06-19T18:59:59;29.00;99.90
18189;DHT22;9219;50.396;8.546;2023-06-19T19:07:42;28.90;99.90
18189;DHT22;9219;50.396;8.546;2023-06-19T19:10:11;28.80;99.90
18189;DHT22;9219;50.396;8.546;2023-06-19T19:12:41;28.80;99.90
18189;DHT22;9219;50.396;8.546;2023-06-19T19:15:13;28.70;99.90
18189;DHT22;9219;50.396;8.546;2023-06-19T19:17:44;28.70;99.90
18189;DHT22;9219;50.396;8.546;2023-06-19T19:20:13;28.60;99.90
18189;DHT22;9219;50.396;8.546;2023-06-19T19:22:47;28.60;99.90
18189;DHT22;9219;50.396;8.546;2023-06-19T19:29:57;28.60;99.90
18189;DHT22;9219;50.396;8.546;2023-06-19T19:32:26;28.90;99.90
18189;DHT22;9219;50.396;8.546;2023-06-19T19:34:55;28.80;99.90
18189;DHT22;9219;50.396;8.546;2023-06-19T19:37:28;28.90;99.90
18189;DHT22;9219;50.396;8.546;2023-06-19T19:39:58;29.00;99.90
18189;DHT22;9219;50.396;8.546;2023-06-19T19:42:28;28.80;99.90
18189;DHT22;9219;50.396;8.546;2023-06-19T19:44:59;28.70;99.90
18189;DHT22;9219;50.396;8.546;2023-06-19T19:48:18;28.60;99.90
18189;DHT22;9219;50.396;8.546;2023-06-19T19:50:50;28.50;99.90
18189;DHT22;9219;50.396;8.546;2023-06-19T19:53:19;28.50;99.90
18189;DHT22;9219;50.396;8.546;2023-06-19T19:55:48;28.50;99.90
18189;DHT22;9219;50.396;8.546;2023-06-19T19:58:17;28.50;99.90
18189;DHT22;9219;50.396;8.546;2023-06-19T20:00:50;28.50;99.90
18189;DHT22;9219;50.396;8.546;2023-06-19T20:03:22;28.40;99.90
18189;DHT22;9219;50.396;8.546;2023-06-19T20:05:53;28.60;99.90
18189;DHT22;9219;50.396;8.546;2023-06-19T20:08:22;28.50;99.90
18189;DHT22;9219;50.396;8.546;2023-06-19T20:13:42;28.60;99.90
18189;DHT22;9219;50.396;8.546;2023-06-19T20:16:11;28.20;99.90
18189;DHT22;9219;50.396;8.546;2023-06-19T20:18:41;28.10;99.90
18189;DHT22;9219;50.396;8.546;2023-06-19T20:21:10;28.30;99.90
18189;DHT22;9219;50.396;8.546;2023-06-19T20:23:39;28.30;99.90
18189;DHT22;9219;50.396;8.546;2023-06-19T20:26:08;28.30;99.90
18189;DHT22;9219;50.396;8.546;2023-06-19T20:28:39;28.30;99.90
18189;DHT22;9219;50.396;8.546;2023-06-19T20:35:08;28.30;99.90
18189;DHT22;9219;50.396;8.546;2023-06-19T20:37:37;28.20;99.90
18189;DHT22;9219;50.396;8.546;2023-06-19T20:40:08;28.10;99.90
18189;DHT22;9219;50.396;8.546;2023-06-19T20:42:36;28.00;99.90
18189;DHT22;9219;50.396;8.546;2023-06-19T20:45:06;28.00;99.90
18189;DHT22;9219;50.396;8.546;2023-06-19T20:47:36;27.90;99.90
18189;DHT22;9219;50.396;8.546;2023-06-19T20:50:07;27.80;99.90
18189;DHT22;9219;50.396;8.546;2023-06-19T20:56:20;28.00;99.90
18189;DHT22;9219;50.396;8.546;2023-06-19T20:58:49;27.90;99.90
18189;DHT22;9219;50.396;8.546;2023-06-19T21:01:22;28.00;99.90
18189;DHT22;9219;50.396;8.546;2023-06-19T21:03:52;27.90;99.90
18189;DHT22;9219;50.396;8.546;2023-06-19T21:06:20;27.80;99.90
18189;DHT22;9219;50.396;8.546;2023-06-19T21:08:58;27.80;99.90
18189;DHT22;9219;50.396;8.546;2023-06-19T21:11:36;27.70;99.90
18189;DHT22;9219;50.396;8.546;2023-06-19T21:38:31;27.20;99.90
18189;DHT22;9219;50.396;8.546;2023-06-19T21:41:01;27.10;99.90
18189;DHT22;9219;50.396;8.546;2023-06-19T21:43:29;27.00;99.90
18189;DHT22;9219;50.396;8.546;2023-06-19T21:45:59;27.10;99.90
18189;DHT22;9219;50.396;8.546;2023-06-19T21:48:37;27.30;99.90
18189;DHT22;9219;50.396;8.546;2023-06-19T21:51:06;27.20;99.90
18189;DHT22;9219;50.396;8.546;2023-06-19T21:53:36;27.20;99.90
18189;DHT22;9219;50.396;8.546;2023-06-19T22:00:14;27.10;99.90
18189;DHT22;9219;50.396;8.546;2023-06-19T22:02:43;27.20;99.90
18189;DHT22;9219;50.396;8.546;2023-06-19T22:05:12;27.40;99.90
18189;DHT22;9219;50.396;8.546;2023-06-19T22:07:40;27.40;99.90
18189;DHT22;9219;50.396;8.546;2023-06-19T22:10:09;27.30;99.90
18189;DHT22;9219;50.396;8.546;2023-06-19T22:12:38;27.20;99.90
18189;DHT22;9219;50.396;8.546;2023-06-19T22:15:07;27.10;99.90
18189;DHT22;9219;50.396;8.546;2023-06-19T22:21:54;27.20;99.90
18189;DHT22;9219;50.396;8.546;2023-06-19T22:24:23;27.20;99.90
18189;DHT22;9219;50.396;8.546;2023-06-19T22:26:52;27.20;99.90
18189;DHT22;9219;50.396;8.546;2023-06-19T22:29:21;27.30;99.90
18189;DHT22;9219;50.396;8.546;2023-06-19T22:31:50;27.20;99.90
18189;DHT22;9219;50.396;8.546;2023-06-19T22:34:18;27.00;99.90
18189;DHT22;9219;50.396;8.546;2023-06-19T22:36:47;27.00;99.90
18189;DHT22;9219;50.396;8.546;2023-06-19T22:39:37;27.00;99.90
18189;DHT22;9219;50.396;8.546;2023-06-19T22:42:06;27.00;99.90
18189;DHT22;9219;50.396;8.546;2023-06-19T22:44:35;26.90;99.90
18189;DHT22;9219;50.396;8.546;2023-06-19T22:47:04;26.90;99.90
18189;DHT22;9219;50.396;8.546;2023-06-19T22:49:36;26.50;99.90
18189;DHT22;9219;50.396;8.546;2023-06-19T22:52:06;26.30;99.90
18189;DHT22;9219;50.396;8.546;2023-06-19T22:54:45;26.10;99.90
18189;DHT22;9219;50.396;8.546;2023-06-19T23:01:38;26.50;99.90
18189;DHT22;9219;50.396;8.546;2023-06-19T23:04:07;26.70;99.90
18189;DHT22;9219;50.396;8.546;2023-06-19T23:06:36;26.40;99.90
18189;DHT22;9219;50.396;8.546;2023-06-19T23:09:12;26.10;99.90
18189;DHT22;9219;50.396;8.546;2023-06-19T23:11:43;25.90;99.90
18189;DHT22;9219;50.396;8.546;2023-06-19T23:14:16;25.80;99.90
18189;DHT22;9219;50.396;8.546;2023-06-19T23:16:47;25.70;99.90
18189;DHT22;9219;50.396;8.546;2023-06-19T23:21:55;25.60;99.90
18189;DHT22;9219;50.396;8.546;2023-06-19T23:24:23;25.50;99.90
18189;DHT22;9219;50.396;8.546;2023-06-19T23:26:57;25.40;99.90
18189;DHT22;9219;50.396;8.546;2023-06-19T23:29:27;25.40;99.90
18189;DHT22;9219;50.396;8.546;2023-06-19T23:32:00;25.40;99.90
18189;DHT22;9219;50.396;8.546;2023-06-19T23:34:31;25.40;99.90
18189;DHT22;9219;50.396;8.546;2023-06-19T23:39:52;25.40;99.90
18189;DHT22;9219;50.396;8.546;2023-06-19T23:42:24;25.60;99.90
18189;DHT22;9219;50.396;8.546;2023-06-19T23:44:53;25.90;99.90
18189;DHT22;9219;50.396;8.546;2023-06-19T23:47:22;26.00;99.90
18189;DHT22;9219;50.396;8.546;2023-06-19T23:49:50;26.10;99.90
18189;DHT22;9219;50.396;8.546;2023-06-19T23:52:19;26.00;99.90
18189;DHT22;9219;50.396;8.546;2023-06-19T23:57:50;26.00;99.90
